Time;durP1;ratioP1;P1;durP2;ratioP2;P2;SDS_P1;SDS_P2;PMS_P1;PMS_P2;Temp;Humidity;BMP_temperature;BMP_pressure;BME280_temperature;BME280_humidity;BME280_pressure;Samples;Min_cycle;Max_cycle;Signal;HPM_P1;HPM_P2
2023/02/12 00:01:38;;;;;;;23.63;14.70;;;;;;;6.24;100.00;103669.34;5072477;28;20527;-63
2023/02/12 00:04:06;;;;;;;21.85;14.15;;;;;;;6.23;100.00;103678.94;5071032;28;20052;-63
2023/02/12 00:06:34;;;;;;;24.65;15.30;;;;;;;6.23;100.00;103676.34;5073938;28;20052;-63
2023/02/12 00:09:03;;;;;;;24.90;14.35;;;;;;;6.23;100.00;103667.59;5071118;28;20094;-63
2023/02/12 00:11:31;;;;;;;23.88;14.60;;;;;;;6.20;100.00;103672.84;5069530;28;20044;-63
2023/02/12 00:13:59;;;;;;;23.35;14.20;;;;;;;6.21;100.00;103665.00;5071537;28;20084;-63
2023/02/12 00:16:29;;;;;;;24.92;15.13;;;;;;;6.20;100.00;103672.84;5070881;28;20052;-63
2023/02/12 00:18:58;;;;;;;26.38;15.98;;;;;;;6.16;100.00;103668.50;5074363;28;20059;-63
2023/02/12 00:21:27;;;;;;;27.73;15.18;;;;;;;6.15;100.00;103672.88;5073801;28;20045;-63
2023/02/12 00:23:56;;;;;;;27.17;16.45;;;;;;;6.16;100.00;103665.88;5070314;28;20517;-63
2023/02/12 00:26:25;;;;;;;24.98;14.57;;;;;;;6.18;100.00;103657.19;5071719;28;20487;-63
2023/02/12 00:28:53;;;;;;;23.90;14.38;;;;;;;6.19;100.00;103660.66;5072209;28;20052;-63
2023/02/12 00:31:24;;;;;;;23.70;14.65;;;;;;;6.19;100.00;103666.75;5053049;28;20139;-63
2023/02/12 00:33:53;;;;;;;23.00;14.65;;;;;;;6.16;100.00;103664.16;5074484;28;20513;-63
2023/02/12 00:36:23;;;;;;;23.70;14.88;;;;;;;6.13;100.00;103664.13;5071006;28;20060;-63
2023/02/12 00:38:53;;;;;;;23.23;14.73;;;;;;;6.11;100.00;103660.69;5072588;28;20036;-63
2023/02/12 00:41:21;;;;;;;28.08;15.00;;;;;;;6.05;100.00;103665.91;5074413;28;20044;-63
2023/02/12 00:43:50;;;;;;;23.70;15.07;;;;;;;6.01;100.00;103669.38;5070669;28;20577;-63
2023/02/12 00:46:18;;;;;;;23.20;14.57;;;;;;;5.98;100.00;103670.25;5070352;28;20145;-63
2023/02/12 00:48:47;;;;;;;23.98;14.10;;;;;;;5.96;100.00;103661.53;5071059;28;20052;-63
2023/02/12 00:51:16;;;;;;;23.73;15.52;;;;;;;5.92;100.00;103667.63;5072380;28;20068;-63
2023/02/12 00:53:44;;;;;;;26.25;15.00;;;;;;;5.85;100.00;103665.88;5074424;28;20098;-63
2023/02/12 00:56:12;;;;;;;25.50;15.80;;;;;;;5.82;100.00;103673.72;5052840;28;20067;-63
2023/02/12 00:58:40;;;;;;;27.38;16.05;;;;;;;5.81;100.00;103667.63;5069185;28;20526;-63
2023/02/12 01:01:08;;;;;;;22.35;15.38;;;;;;;5.81;100.00;103664.13;5070357;28;20087;-63
2023/02/12 01:03:37;;;;;;;23.27;14.98;;;;;;;5.79;100.00;103665.88;5071483;28;20060;-63
2023/02/12 01:06:05;;;;;;;29.90;16.48;;;;;;;5.75;100.00;103665.00;5073945;28;20049;-63
2023/02/12 01:08:35;;;;;;;25.63;16.00;;;;;;;5.71;100.00;103674.59;5073936;28;20518;-63
2023/02/12 01:11:05;;;;;;;26.58;16.02;;;;;;;5.68;100.00;103671.09;5073838;28;20184;-63
2023/02/12 01:13:34;;;;;;;26.52;15.90;;;;;;;5.68;100.00;103671.09;5073808;28;20048;-63
2023/02/12 01:16:05;;;;;;;28.02;15.77;;;;;;;5.66;100.00;103665.00;5073580;28;20098;-63
2023/02/12 01:18:33;;;;;;;24.73;15.70;;;;;;;5.62;100.00;103671.97;5073725;28;20044;-63
2023/02/12 01:21:01;;;;;;;27.55;15.52;;;;;;;5.58;100.00;103665.88;5073671;28;20384;-63
2023/02/12 01:23:30;;;;;;;29.80;16.73;;;;;;;5.54;100.00;103669.34;5073659;28;20495;-63
2023/02/12 01:26:00;;;;;;;25.92;16.67;;;;;;;5.52;100.00;103678.03;5054681;28;20071;-63
2023/02/12 01:28:28;;;;;;;27.08;16.77;;;;;;;5.47;100.00;103672.81;5069419;28;20281;-63
2023/02/12 01:30:56;;;;;;;25.33;15.80;;;;;;;5.45;100.00;103676.31;5069952;28;20045;-63
2023/02/12 01:33:24;;;;;;;28.70;16.63;;;;;;;5.43;100.00;103681.53;5069466;28;20113;-63
2023/02/12 01:35:52;;;;;;;30.05;16.65;;;;;;;5.41;100.00;103667.56;5069617;28;20047;-63
2023/02/12 01:38:21;;;;;;;26.67;16.50;;;;;;;5.41;100.00;103678.91;5069591;28;20059;-63
2023/02/12 01:40:49;;;;;;;25.60;16.63;;;;;;;5.39;100.00;103671.94;5067971;28;20056;-63
2023/02/12 01:43:18;;;;;;;26.90;16.20;;;;;;;5.37;100.00;103664.13;5069279;28;20530;-63
2023/02/12 01:45:51;;;;;;;24.60;16.05;;;;;;;5.36;100.00;103664.13;5071429;28;20052;-63
2023/02/12 01:48:23;;;;;;;29.27;17.75;;;;;;;5.31;100.00;103663.22;5073101;28;20372;-63
2023/02/12 01:50:54;;;;;;;30.70;18.05;;;;;;;5.27;100.00;103669.31;5073107;28;20063;-63
2023/02/12 01:53:29;;;;;;;27.77;17.17;;;;;;;5.24;100.00;103665.81;5072253;28;20111;-63
2023/02/12 01:56:00;;;;;;;27.95;17.02;;;;;;;5.22;100.00;103675.38;5068490;28;20688;-63
2023/02/12 01:58:34;;;;;;;26.90;17.23;;;;;;;5.21;100.00;103671.03;5071455;28;20044;-63
2023/02/12 02:01:04;;;;;;;26.65;16.23;;;;;;;5.20;100.00;103671.03;5069546;28;20048;-63
2023/02/12 02:03:35;;;;;;;32.05;17.42;;;;;;;5.17;100.00;103671.88;5068964;28;20053;-63
2023/02/12 02:06:09;;;;;;;28.33;16.25;;;;;;;5.17;100.00;103669.28;5069454;28;20660;-63
2023/02/12 02:08:38;;;;;;;25.83;15.98;;;;;;;5.15;100.00;103655.34;5068633;28;20102;-63
2023/02/12 02:16:37;;;;;;;30.98;17.25;;;;;;;5.07;100.00;103657.94;5047608;28;20441;-63
2023/02/12 02:19:15;;;;;;;28.33;17.15;;;;;;;5.06;100.00;103656.19;5072699;28;20430;-63
2023/02/12 02:22:17;;;;;;;28.80;16.98;;;;;;;5.03;100.00;103661.41;5069625;28;20044;-63
2023/02/12 02:25:14;;;;;;;27.60;16.45;;;;;;;5.03;100.00;103661.41;5064761;28;20503;-63
2023/02/12 02:27:53;;;;;;;28.35;17.60;;;;;;;4.99;100.00;103662.28;5067885;28;20052;-63
2023/02/12 02:30:44;;;;;;;27.85;17.25;;;;;;;4.98;100.00;103657.06;5068306;28;20127;-63
2023/02/12 02:33:30;;;;;;;29.17;17.33;;;;;;;4.96;100.00;103650.94;5068944;28;20055;-63
2023/02/12 02:36:11;;;;;;;28.95;17.00;;;;;;;4.90;100.00;103655.28;5072338;28;20106;-63
2023/02/12 02:38:45;;;;;;;29.40;16.45;;;;;;;4.89;100.00;103647.44;5068762;28;20044;-63
2023/02/12 02:41:21;;;;;;;24.20;15.68;;;;;;;4.87;100.00;103643.97;5068157;28;20127;-63
2023/02/12 02:43:51;;;;;;;27.30;16.38;;;;;;;4.87;100.00;103646.59;5062680;28;20144;-63
2023/02/12 02:46:28;;;;;;;26.35;15.95;;;;;;;4.83;100.00;103640.47;5064311;28;20448;-63
2023/02/12 02:49:00;;;;;;;29.13;16.20;;;;;;;4.80;100.00;103636.97;5071585;28;20123;-63
2023/02/12 02:51:30;;;;;;;;;;;;;;;4.73;100.00;103647.41;5072877;28;20139;-63
2023/02/12 02:54:05;;;;;;;28.77;16.23;;;;;;;4.67;100.00;103641.28;5072130;28;20010;-63
2023/02/12 02:56:39;;;;;;;28.80;15.60;;;;;;;4.68;100.00;103645.66;5072082;28;20072;-52
2023/02/12 02:59:11;;;;;;;27.40;17.13;;;;;;;4.67;100.00;103646.50;5071987;28;20055;-51
2023/02/12 03:01:46;;;;;;;28.23;17.35;;;;;;;4.64;100.00;103647.34;5053958;28;20045;-63
2023/02/12 03:04:21;;;;;;;28.45;16.15;;;;;;;4.62;100.00;103643.88;5072115;28;20106;-62
2023/02/12 03:06:54;;;;;;;25.50;16.08;;;;;;;4.59;100.00;103645.59;5072186;28;20437;-63
2023/02/12 03:09:28;;;;;;;25.65;15.73;;;;;;;4.55;100.00;103648.19;5071870;28;20132;-62
2023/02/12 03:12:01;;;;;;;26.33;15.88;;;;;;;4.54;100.00;103650.75;5067968;28;20056;-63
2023/02/12 03:14:33;;;;;;;27.08;16.67;;;;;;;4.49;100.00;103647.28;5068198;28;20128;-63
2023/02/12 03:17:07;;;;;;;30.02;16.88;;;;;;;4.45;100.00;103650.75;5069075;28;20052;-62
2023/02/12 03:19:40;;;;;;;26.70;16.10;;;;;;;4.42;100.00;103654.19;5069461;28;20044;-62
2023/02/12 03:22:11;;;;;;;25.27;16.10;;;;;;;4.39;100.00;103651.56;5069284;28;20392;-62
2023/02/12 03:24:43;;;;;;;27.92;17.00;;;;;;;4.40;100.00;103646.38;5071853;28;20044;-63
2023/02/12 03:27:17;;;;;;;31.10;17.13;;;;;;;4.37;100.00;103645.47;5071856;28;20044;-63
2023/02/12 03:29:46;;;;;;;28.77;16.83;;;;;;;4.35;100.00;103647.19;5076461;28;20045;-62
2023/02/12 03:32:29;;;;;;;30.73;17.98;;;;;;;4.35;100.00;103644.56;5075919;28;20048;-62
2023/02/12 03:35:09;;;;;;;30.15;18.42;;;;;;;4.39;100.00;103644.63;5075656;28;20075;-62
2023/02/12 03:37:41;;;;;;;31.13;17.75;;;;;;;4.40;100.00;103645.50;5071690;28;20545;-62
2023/02/12 03:40:17;;;;;;;29.02;16.85;;;;;;;4.40;100.00;103637.66;5073051;28;20060;-62
2023/02/12 03:42:51;;;;;;;31.23;16.73;;;;;;;4.36;100.00;103638.50;5075657;28;20040;-62
2023/02/12 03:45:38;;;;;;;29.65;17.83;;;;;;;4.34;100.00;103645.47;5075289;28;20403;-62
2023/02/12 03:48:11;;;;;;;30.75;17.80;;;;;;;4.34;100.00;103653.28;5074247;28;20041;-62
2023/02/12 03:50:46;;;;;;;31.67;17.92;;;;;;;4.34;100.00;103658.50;5071822;28;20037;-63
2023/02/12 03:53:15;;;;;;;33.40;19.38;;;;;;;4.35;100.00;103652.41;5056085;28;20052;-62
2023/02/12 03:55:45;;;;;;;34.13;19.13;;;;;;;4.37;100.00;103658.50;5070947;28;20139;-62
2023/02/12 03:58:19;;;;;;;30.42;17.95;;;;;;;4.35;100.00;103658.50;5054169;28;20110;-62
2023/02/12 04:00:48;;;;;;;26.63;16.77;;;;;;;4.33;100.00;103657.59;5075619;28;20052;-62
2023/02/12 04:03:17;;;;;;;27.00;16.85;;;;;;;4.33;100.00;103655.00;5072418;28;20502;-63
2023/02/12 04:05:46;;;;;;;29.98;16.42;;;;;;;4.32;100.00;103660.22;5070797;28;20048;-63
2023/02/12 04:08:14;;;;;;;29.40;16.98;;;;;;;4.33;100.00;103664.56;5071464;28;20577;-62
2023/02/12 04:10:56;;;;;;;28.33;17.02;;;;;;;4.32;100.00;103665.41;5071128;28;20094;-63
2023/02/12 04:13:33;;;;;;;28.52;17.00;;;;;;;4.33;100.00;103661.97;5074975;28;20040;-62
2023/02/12 04:16:16;;;;;;;29.25;16.92;;;;;;;4.34;100.00;103674.13;5072698;28;20487;-62
2023/02/12 04:18:49;;;;;;;30.20;17.15;;;;;;;4.32;100.00;103662.81;5071259;28;20048;-63
2023/02/12 04:21:29;;;;;;;29.55;17.15;;;;;;;4.33;100.00;103659.34;5071739;28;20037;-62
2023/02/12 04:24:06;;;;;;;26.52;16.80;;;;;;;4.34;100.00;103669.78;5074837;28;20127;-62
2023/02/12 04:26:42;;;;;;;30.25;17.52;;;;;;;4.34;100.00;103674.13;5074841;28;20036;-62
2023/02/12 04:29:20;;;;;;;30.08;18.23;;;;;;;4.35;100.00;103681.06;5075021;28;20600;-62
2023/02/12 04:31:52;;;;;;;28.40;16.88;;;;;;;4.37;100.00;103684.56;5074753;28;20048;-62
2023/02/12 04:34:29;;;;;;;30.67;18.13;;;;;;;4.38;100.00;103683.72;5072402;28;20059;-62
2023/02/12 04:37:07;;;;;;;31.35;17.63;;;;;;;4.38;100.00;103686.31;5071096;28;20051;-63
2023/02/12 04:39:38;;;;;;;28.25;17.35;;;;;;;4.38;100.00;103689.78;5069176;28;20052;-63
2023/02/12 04:42:07;;;;;;;34.45;19.73;;;;;;;4.42;100.00;103688.06;5070342;28;20404;-62
2023/02/12 04:44:39;;;;;;;28.88;18.23;;;;;;;4.46;100.00;103692.44;5068797;28;20095;-62
2023/02/12 04:47:07;;;;;;;33.20;19.63;;;;;;;4.48;100.00;103690.69;5062736;28;20098;-62
2023/02/12 04:49:36;;;;;;;30.25;18.45;;;;;;;4.47;100.00;103690.69;5073118;28;20052;-62
2023/02/12 04:52:05;;;;;;;32.45;20.73;;;;;;;4.47;100.00;103694.19;5052462;28;20075;-62
2023/02/12 04:54:33;;;;;;;33.83;19.65;;;;;;;4.52;100.00;103689.84;5069919;28;20075;-63
2023/02/12 04:57:04;;;;;;;36.55;19.85;;;;;;;4.52;100.00;103695.06;5069495;28;20053;-62
2023/02/12 04:59:32;;;;;;;32.10;19.35;;;;;;;4.53;100.00;103698.56;5070330;28;20075;-62
2023/02/12 05:02:00;;;;;;;34.72;20.45;;;;;;;4.54;100.00;103701.19;5052442;28;20135;-63
2023/02/12 05:04:28;;;;;;;36.33;20.08;;;;;;;4.63;100.00;103691.66;5072984;28;20066;-62
2023/02/12 05:07:01;;;;;;;34.22;20.65;;;;;;;4.67;100.00;103703.84;5074161;28;20047;-62
2023/02/12 05:09:29;;;;;;;32.45;20.10;;;;;;;4.66;100.00;103696.88;5072998;28;20045;-63
2023/02/12 05:12:00;;;;;;;33.25;19.92;;;;;;;4.67;100.00;103703.84;5069452;28;20514;-62
2023/02/12 05:14:28;;;;;;;33.67;20.00;;;;;;;4.67;100.00;103698.63;5069586;28;20502;-62
2023/02/12 05:16:56;;;;;;;32.10;18.45;;;;;;;4.67;100.00;103701.25;5062074;28;20119;-62
2023/02/12 05:19:24;;;;;;;34.15;20.75;;;;;;;4.67;100.00;103694.28;5054298;28;20587;-62
2023/02/12 05:21:52;;;;;;;32.38;19.35;;;;;;;4.67;100.00;103694.28;5053874;28;20468;-62
2023/02/12 05:24:22;;;;;;;34.28;20.15;;;;;;;4.69;100.00;103699.50;5049171;28;20052;-63
2023/02/12 05:26:50;;;;;;;30.25;19.63;;;;;;;4.71;100.00;103703.00;5054439;28;20098;-63
2023/02/12 05:29:18;;;;;;;33.00;19.35;;;;;;;4.71;100.00;103698.66;5063324;28;20484;-62
2023/02/12 05:31:47;;;;;;;33.17;19.80;;;;;;;4.72;100.00;103696.94;5069991;28;20143;-63
2023/02/12 05:34:15;;;;;;;31.70;19.42;;;;;;;4.72;100.00;103697.78;5073537;28;20049;-62
2023/02/12 05:36:43;;;;;;;32.47;19.77;;;;;;;4.75;100.00;103702.16;5068172;28;20049;-62
2023/02/12 05:39:14;;;;;;;30.90;19.77;;;;;;;4.76;100.00;103698.69;5068781;28;20072;-62
2023/02/12 05:41:44;;;;;;;30.23;18.92;;;;;;;4.78;100.00;103702.16;5068062;28;20130;-62
2023/02/12 05:44:13;;;;;;;34.55;20.30;;;;;;;4.80;100.00;103702.16;5072074;28;21047;-62
2023/02/12 05:46:42;;;;;;;34.55;19.88;;;;;;;4.86;100.00;103703.06;5070849;28;20434;-62
2023/02/12 05:49:11;;;;;;;31.58;20.67;;;;;;;4.93;100.00;103705.72;5071511;28;20106;-62
2023/02/12 05:51:39;;;;;;;31.25;19.90;;;;;;;4.89;100.00;103708.31;5069688;28;20053;-53
2023/02/12 05:54:07;;;;;;;35.13;20.83;;;;;;;4.93;100.00;103708.31;5068878;28;20048;-51
2023/02/12 05:56:38;;;;;;;31.33;20.08;;;;;;;4.91;100.00;103705.72;5068020;28;20563;-49
2023/02/12 05:59:11;;;;;;;33.80;19.15;;;;;;;4.90;100.00;103701.34;5073320;28;20037;-50
2023/02/12 06:01:41;;;;;;;31.92;19.60;;;;;;;4.90;100.00;103707.44;5073021;28;20055;-49
2023/02/12 06:04:14;;;;;;;30.15;19.35;;;;;;;4.91;100.00;103705.72;5070318;28;20048;-49
2023/02/12 06:06:43;;;;;;;31.65;19.27;;;;;;;4.90;100.00;103712.66;5069385;28;20041;-51
2023/02/12 06:09:12;;;;;;;33.47;20.63;;;;;;;4.91;100.00;103705.72;5071616;28;20044;-51
2023/02/12 06:11:40;;;;;;;31.48;18.25;;;;;;;4.91;100.00;103706.56;5062191;28;20072;-53
2023/02/12 06:14:14;;;;;;;32.40;18.73;;;;;;;4.92;100.00;103704.81;5061566;28;20398;-48
2023/02/12 06:16:45;;;;;;;33.20;19.65;;;;;;;4.94;100.00;103707.47;5058479;28;20056;-51
2023/02/12 06:19:13;;;;;;;33.60;20.42;;;;;;;4.94;100.00;103715.31;5057581;28;20585;-50
2023/02/12 06:21:41;;;;;;;32.72;19.30;;;;;;;4.94;100.00;103715.31;5060234;28;20043;-51
2023/02/12 06:24:11;;;;;;;34.28;19.98;;;;;;;4.95;100.00;103710.09;5065009;28;20044;-53
2023/02/12 06:26:39;;;;;;;33.28;19.02;;;;;;;5.00;100.00;103717.91;5062287;28;20033;-49
2023/02/12 06:29:07;;;;;;;31.20;18.75;;;;;;;5.04;100.00;103720.53;5063748;28;20074;-53
2023/02/12 06:31:39;;;;;;;32.97;19.58;;;;;;;5.04;100.00;103717.06;5089081;28;20203;-53
2023/02/12 06:34:10;;;;;;;33.63;19.35;;;;;;;5.02;100.00;103717.06;5071822;28;20075;-50
2023/02/12 06:36:40;;;;;;;33.15;20.00;;;;;;;5.02;100.00;103724.03;5058940;28;20041;-52
2023/02/12 06:39:09;;;;;;;32.88;18.50;;;;;;;4.99;100.00;103721.38;5060903;28;20099;-54
2023/02/12 06:41:37;;;;;;;33.80;19.25;;;;;;;5.00;100.00;103729.22;5061214;28;20049;-53
2023/02/12 06:44:06;;;;;;;34.85;20.38;;;;;;;5.00;100.00;103723.13;5056205;28;20087;-48
2023/02/12 06:46:34;;;;;;;32.83;21.63;;;;;;;4.99;100.00;103718.78;5051812;28;20474;-49
2023/02/12 06:49:04;;;;;;;33.97;19.20;;;;;;;5.03;100.00;103724.03;5046836;28;20488;-48
2023/02/12 06:51:32;;;;;;;29.67;19.42;;;;;;;5.03;100.00;103725.75;5050873;28;20037;-51
2023/02/12 06:54:00;;;;;;;33.83;19.75;;;;;;;5.04;100.00;103730.09;5048733;28;20067;-51
2023/02/12 06:56:30;;;;;;;32.65;19.65;;;;;;;5.06;100.00;103731.84;5050001;28;20041;-51
2023/02/12 06:59:00;;;;;;;30.60;19.30;;;;;;;5.07;100.00;103735.31;5049663;28;20037;-48
2023/02/12 07:01:30;;;;;;;29.98;18.63;;;;;;;5.06;100.00;103737.06;5049262;28;20156;-50
2023/02/12 07:03:59;;;;;;;32.72;18.45;;;;;;;5.07;100.00;103731.00;5037481;28;20068;-51
2023/02/12 07:06:31;;;;;;;29.20;19.40;;;;;;;5.08;100.00;103737.06;5050087;28;20049;-48
2023/02/12 07:08:59;;;;;;;28.75;17.88;;;;;;;5.09;100.00;103746.66;5049133;28;20033;-52
2023/02/12 07:11:30;;;;;;;30.20;19.17;;;;;;;5.09;100.00;103749.25;5052098;28;20421;-48
2023/02/12 07:13:58;;;;;;;32.50;19.73;;;;;;;5.09;100.00;103744.03;5050780;28;20079;-50
2023/02/12 07:16:27;;;;;;;29.23;17.50;;;;;;;5.09;100.00;103744.03;5049625;28;20141;-48
2023/02/12 07:18:55;;;;;;;27.35;17.33;;;;;;;5.08;100.00;103745.78;5049374;28;20080;-52
2023/02/12 07:21:23;;;;;;;33.28;19.00;;;;;;;5.08;100.00;103752.72;5047888;28;20045;-50
2023/02/12 07:23:54;;;;;;;31.05;19.83;;;;;;;5.08;100.00;103745.78;5045785;28;20484;-49
2023/02/12 07:26:22;;;;;;;32.50;19.58;;;;;;;5.11;100.00;103751.88;5031309;28;20056;-50
2023/02/12 07:28:52;;;;;;;30.75;19.10;;;;;;;5.11;100.00;103757.94;5049993;28;20033;-49
2023/02/12 07:31:21;;;;;;;32.40;20.08;;;;;;;5.13;100.00;103752.78;5048753;28;20507;-51
2023/02/12 07:33:53;;;;;;;35.55;21.73;;;;;;;5.11;100.00;103762.31;5048358;28;20056;-52
2023/02/12 07:36:22;;;;;;;31.80;19.65;;;;;;;5.16;100.00;103761.47;5045991;28;20045;-51
2023/02/12 07:38:50;;;;;;;31.27;19.10;;;;;;;5.18;100.00;103759.75;5048722;28;20049;-48
2023/02/12 07:41:23;;;;;;;33.65;20.35;;;;;;;5.21;100.00;103764.09;5049208;28;20107;-52
2023/02/12 07:43:54;;;;;;;33.70;21.02;;;;;;;5.28;100.00;103770.22;5031880;28;20060;-48
2023/02/12 07:46:28;;;;;;;32.92;20.88;;;;;;;5.29;100.00;103769.34;5046520;28;20116;-48
2023/02/12 07:48:58;;;;;;;33.28;20.80;;;;;;;5.29;100.00;103766.72;5042842;28;20044;-52
2023/02/12 07:51:27;;;;;;;30.67;19.70;;;;;;;5.30;100.00;103764.13;5045284;28;20438;-51
2023/02/12 07:53:55;;;;;;;32.30;20.30;;;;;;;5.31;100.00;103768.47;5040057;28;20068;-49
2023/02/12 07:56:29;;;;;;;33.13;20.58;;;;;;;5.33;100.00;103776.31;5044766;28;20403;-52
2023/02/12 07:58:59;;;;;;;30.92;20.67;;;;;;;5.35;100.00;103771.97;5045386;28;20052;-52
2023/02/12 08:01:29;;;;;;;30.73;19.75;;;;;;;5.35;100.00;103774.59;5046274;28;20433;-53
2023/02/12 08:03:59;;;;;;;33.78;21.23;;;;;;;5.38;100.00;103774.59;5046052;28;20407;-52
2023/02/12 08:06:31;;;;;;;32.65;20.52;;;;;;;5.40;100.00;103776.34;5046229;28;20072;-53
2023/02/12 08:09:01;;;;;;;33.72;21.08;;;;;;;5.43;100.00;103778.09;5046993;28;20052;-54
2023/02/12 08:11:31;;;;;;;33.40;20.52;;;;;;;5.48;100.00;103783.31;5048436;28;20119;-50
2023/02/12 08:14:00;;;;;;;33.78;20.25;;;;;;;5.51;100.00;103786.81;5049233;28;20041;-49
2023/02/12 08:16:30;;;;;;;33.58;20.73;;;;;;;5.52;100.00;103788.59;5051162;28;20131;-50
2023/02/12 08:18:59;;;;;;;33.40;21.83;;;;;;;5.54;100.00;103791.19;5043720;28;20048;-49
2023/02/12 08:21:43;;;;;;;34.53;20.90;;;;;;;5.59;100.00;103792.09;5050274;28;20041;-53
2023/02/12 08:24:12;;;;;;;32.75;20.70;;;;;;;5.64;100.00;103785.09;5051111;28;20048;-49
2023/02/12 08:26:41;;;;;;;35.13;21.70;;;;;;;5.67;100.00;103786.84;5052113;28;20064;-50
2023/02/12 08:29:16;;;;;;;37.38;21.65;;;;;;;5.68;100.00;103792.09;5052957;28;20552;-52
2023/02/12 08:31:46;;;;;;;34.22;22.27;;;;;;;5.73;100.00;103798.19;5053192;28;20056;-50
2023/02/12 08:34:18;;;;;;;36.67;23.23;;;;;;;5.76;100.00;103795.59;5050325;28;20051;-49
2023/02/12 08:36:47;;;;;;;36.33;21.90;;;;;;;5.79;100.00;103797.34;5046042;28;20044;-50
2023/02/12 08:39:17;;;;;;;37.17;22.98;;;;;;;5.81;100.00;103798.22;5051332;28;20033;-52
2023/02/12 08:41:47;;;;;;;39.80;23.80;;;;;;;5.84;100.00;103805.19;5047906;28;20120;-53
2023/02/12 08:44:15;;;;;;;37.13;24.02;;;;;;;5.86;100.00;103809.56;5049497;28;20045;-51
2023/02/12 08:46:45;;;;;;;36.80;23.63;;;;;;;5.91;100.00;103809.56;5055834;28;20052;-50
2023/02/12 08:49:16;;;;;;;37.85;23.73;;;;;;;5.94;100.00;103809.56;5062201;28;20040;-50
2023/02/12 08:51:48;;;;;;;34.40;23.30;;;;;;;5.96;100.00;103822.63;5072802;28;20098;-52
2023/02/12 08:54:18;;;;;;;33.42;21.50;;;;;;;5.99;100.00;103807.84;5064643;28;20068;-50
2023/02/12 08:56:47;;;;;;;34.50;22.73;;;;;;;6.03;100.00;103820.06;5062240;28;20056;-50
2023/02/12 08:59:17;;;;;;;35.85;22.42;;;;;;;6.09;100.00;103827.03;5062135;28;20033;-51
2023/02/12 09:01:45;;;;;;;35.65;22.77;;;;;;;6.11;100.00;103827.91;5060003;28;20403;-51
2023/02/12 09:04:16;;;;;;;34.83;22.60;;;;;;;6.15;100.00;103821.81;5061793;28;20459;-49
2023/02/12 09:06:46;;;;;;;33.67;23.20;;;;;;;6.19;100.00;103831.41;5060801;28;20111;-51
2023/02/12 09:09:15;;;;;;;33.90;22.45;;;;;;;6.22;100.00;103828.78;5059000;28;20049;-50
2023/02/12 09:11:43;;;;;;;35.97;22.13;;;;;;;6.25;100.00;103833.16;5059479;28;20041;-51
2023/02/12 09:14:15;;;;;;;34.58;22.77;;;;;;;6.31;100.00;103835.75;5058660;28;20079;-49
2023/02/12 09:16:44;;;;;;;33.30;22.60;;;;;;;6.33;100.00;103822.72;5050345;28;20052;-54
2023/02/12 09:19:13;;;;;;;35.47;22.83;;;;;;;6.37;100.00;103829.69;5057856;28;20060;-52
2023/02/12 09:21:42;;;;;;;37.90;23.85;;;;;;;6.40;100.00;103838.38;5061049;28;20073;-51
2023/02/12 09:24:10;;;;;;;36.05;24.27;;;;;;;6.42;100.00;103835.75;5061389;28;20064;-51
2023/02/12 09:26:39;;;;;;;39.08;24.92;;;;;;;6.45;100.00;103838.41;5057943;28;20052;-52
2023/02/12 09:29:10;;;;;;;38.45;23.23;;;;;;;6.48;100.00;103835.78;5058560;28;20048;-53
2023/02/12 09:31:39;;;;;;;34.80;23.67;;;;;;;6.49;100.00;103832.28;5080871;28;20043;-50
2023/02/12 09:34:08;;;;;;;38.00;25.20;;;;;;;6.53;100.00;103838.38;5093144;28;20043;-54
2023/02/12 09:36:36;;;;;;;36.97;23.65;;;;;;;6.58;100.00;103837.50;5071084;28;20507;-54
2023/02/12 09:39:05;;;;;;;35.60;24.05;;;;;;;6.62;100.00;103840.13;5069484;28;20127;-49
2023/02/12 09:42:02;;;;;;;35.22;24.20;;;;;;;6.73;100.00;103839.22;5071942;28;20090;-49
2023/02/12 09:44:39;;;;;;;35.55;22.23;;;;;;;6.76;100.00;103839.25;5068962;28;20041;-50
2023/02/12 09:47:15;;;;;;;33.88;23.00;;;;;;;6.76;100.00;103838.34;5078445;28;20052;-49
2023/02/12 09:50:03;;;;;;;36.33;23.17;;;;;;;6.74;100.00;103834.88;5093731;28;20036;-51
2023/02/12 09:52:31;;;;;;;35.67;23.50;;;;;;;6.76;100.00;103839.25;5093116;28;20054;-50
2023/02/12 09:55:00;;;;;;;35.08;22.88;;;;;;;6.75;100.00;103836.63;5092854;28;20036;-52
2023/02/12 09:57:32;;;;;;;33.85;23.25;;;;;;;6.76;100.00;103838.34;5091033;28;20078;-51
2023/02/12 10:00:05;;;;;;;34.55;22.48;;;;;;;6.80;100.00;103839.22;5072650;28;20033;-52
2023/02/12 10:02:37;;;;;;;36.28;23.35;;;;;;;6.83;100.00;103840.13;5073114;28;20498;-52
2023/02/12 10:05:14;;;;;;;33.92;22.58;;;;;;;6.84;100.00;103833.97;5072854;28;20036;-54
2023/02/12 10:08:02;;;;;;;34.53;22.48;;;;;;;6.88;100.00;103837.47;5072947;28;20554;-54
2023/02/12 10:10:46;;;;;;;37.53;24.80;;;;;;;6.91;100.00;103838.34;5072888;28;20106;-51
2023/02/12 10:13:26;;;;;;;38.95;25.25;;;;;;;6.96;100.00;103846.19;5068700;28;20402;-50
2023/02/12 10:16:06;;;;;;;36.72;23.67;;;;;;;7.00;100.00;103840.06;5060305;28;20067;-52
2023/02/12 10:18:58;;;;;;;38.20;24.75;;;;;;;7.03;100.00;103836.56;5061972;28;20036;-49
2023/02/12 10:21:39;;;;;;;39.25;25.02;;;;;;;7.08;100.00;103845.28;5091192;28;20048;-49
2023/02/12 10:24:33;;;;;;;36.53;23.95;;;;;;;7.12;100.00;103836.56;5085004;28;20044;-48
2023/02/12 10:27:11;;;;;;;37.45;23.40;;;;;;;7.17;100.00;103839.16;5072702;28;20094;-51
2023/02/12 10:29:42;;;;;;;33.88;22.65;;;;;;;7.20;100.00;103844.38;5072506;28;20423;-50
2023/02/12 10:32:19;;;;;;;38.88;23.58;;;;;;;7.19;100.00;103835.66;5050477;28;20076;-52
2023/02/12 10:34:51;;;;;;;36.10;22.98;;;;;;;7.23;100.00;103832.16;5068413;28;20048;-52
2023/02/12 10:37:32;;;;;;;41.20;23.37;;;;;;;7.29;100.00;103839.09;5070905;28;20092;-54
2023/02/12 10:40:04;;;;;;;36.63;23.42;;;;;;;7.31;100.00;103832.13;5072532;28;20522;-50
2023/02/12 10:42:39;;;;;;;31.42;22.05;;;;;;;7.34;100.00;103839.09;5072663;28;20044;-53
2023/02/12 10:45:13;;;;;;;;;;;;;;;7.40;100.00;103842.56;5073441;28;20047;-63
2023/02/12 10:47:42;;;;;;;32.53;20.55;;;;;;;7.39;100.00;103846.06;5072318;28;20002;-63
2023/02/12 10:50:21;;;;;;;36.00;21.05;;;;;;;7.41;100.00;103835.56;5072452;28;20514;-63
2023/02/12 10:52:55;;;;;;;34.63;22.35;;;;;;;7.47;100.00;103837.28;5072445;28;20063;-63
2023/02/12 10:55:27;;;;;;;34.60;22.02;;;;;;;7.52;100.00;103840.78;5072187;28;20062;-63
2023/02/12 10:57:56;;;;;;;33.60;20.83;;;;;;;7.56;100.00;103838.13;5072571;28;20499;-63
2023/02/12 11:00:29;;;;;;;33.67;21.70;;;;;;;7.58;100.00;103840.72;5069846;28;20127;-63
2023/02/12 11:03:04;;;;;;;32.35;20.70;;;;;;;7.61;100.00;103838.97;5068226;28;20048;-63
2023/02/12 11:05:35;;;;;;;30.23;19.35;;;;;;;7.63;100.00;103845.97;5072095;28;20537;-63
2023/02/12 11:08:05;;;;;;;31.02;18.20;;;;;;;7.64;100.00;103845.94;5072195;28;20051;-63
2023/02/12 11:10:39;;;;;;;27.90;17.00;;;;;;;7.66;100.00;103833.69;5069803;28;20090;-63
2023/02/12 11:13:23;;;;;;;28.92;17.95;;;;;;;7.72;100.00;103835.44;5078693;28;20040;-64
2023/02/12 11:15:52;;;;;;;28.65;17.95;;;;;;;7.74;100.00;103831.06;5091879;28;20056;-63
2023/02/12 11:18:24;;;;;;;28.30;17.63;;;;;;;7.80;100.00;103831.03;5087922;28;20059;-63
2023/02/12 11:20:57;;;;;;;25.90;16.83;;;;;;;7.84;100.00;103834.47;5057468;28;20040;-64
2023/02/12 11:23:28;;;;;;;28.52;17.02;;;;;;;7.85;100.00;103829.22;5067155;28;20430;-64
2023/02/12 11:26:02;;;;;;;26.10;16.30;;;;;;;7.90;100.00;103830.06;5073298;28;20085;-64
2023/02/12 11:28:33;;;;;;;29.50;17.63;;;;;;;7.89;100.00;103827.47;5089121;28;20078;-63
2023/02/12 11:31:03;;;;;;;29.08;17.73;;;;;;;7.97;100.00;103833.53;5092773;28;20044;-64
2023/02/12 11:33:34;;;;;;;28.88;17.77;;;;;;;8.03;100.00;103830.00;5068860;28;20468;-63
2023/02/12 11:36:12;;;;;;;25.88;17.05;;;;;;;8.06;100.00;103820.38;5068096;28;20044;-64